< Cyclone 200010 2000 Season Cyclone 200012 >
Cyclone 200011 (PAUL)
General InformationTrack Information on Google MapsDetailed Wind InformationList of All Images || ResourceGoogle EarthGE AnimationAtom FeedGeoJSON
Detalied Best Track (Time Zone = UTC)
Year Month Day Hour Lat. Long. Pressure (hPa) Wind (kt) Class Image Chart
2000 4 10 22 -12.9 127.5 1000 27 2 Image --
2000 4 11 04 -12.9 126.4 1000 27 2 Image --
2000 4 11 10 -12.9 125.2 1000 27 2 Image --
2000 4 11 16 -12.9 123.7 1000 27 2 Image --
2000 4 11 22 -12.9 121.9 1000 27 2 Image --
2000 4 12 04 -13.1 120.0 1000 27 2 Image --
2000 4 12 10 -13.4 118.3 995 35 3 Image --
2000 4 12 16 -13.5 116.5 995 35 3 Image --
2000 4 12 22 -13.7 115.0 990 41 3 Image --
2000 4 13 04 -13.9 113.5 990 41 3 Image --
2000 4 13 10 -14.3 112.0 980 54 4 Image --
2000 4 13 16 -14.9 110.5 970 64 5 Image --
2000 4 13 22 -15.2 109.4 960 76 5 Image --
2000 4 14 04 -15.1 108.5 955 80 5 Image --
2000 4 14 10 -14.9 107.4 940 93 5 Image --
2000 4 14 16 -14.7 106.5 930 101 5 Image --
2000 4 14 22 -14.5 105.4 920 107 5 Image --
2000 4 15 04 -14.1 104.2 915 111 5 Image --
2000 4 15 10 -14.0 103.3 915 111 5 Image --
2000 4 15 16 -13.6 102.4 915 111 5 Image --
2000 4 15 22 -13.5 101.5 920 107 5 Image --
2000 4 16 04 -13.5 100.7 930 101 5 Image --
2000 4 16 10 -13.5 99.9 940 93 5 Image --
2000 4 16 16 -13.7 99.0 950 84 5 Image --
2000 4 16 22 -13.7 98.2 955 80 5 Image --
2000 4 17 04 -13.9 97.6 955 80 5 Image --
2000 4 17 10 -14.3 97.1 955 80 5 Image --
2000 4 17 16 -14.5 96.6 955 80 5 Image --
2000 4 17 22 -14.4 96.1 955 80 5 Image --
2000 4 18 04 -14.5 95.7 955 80 5 Image --
2000 4 18 10 -14.5 95.5 955 80 5 Image --
2000 4 18 16 -14.7 95.3 955 80 5 Image --
2000 4 18 22 -14.8 95.3 965 70 5 Image --
2000 4 19 04 -14.8 95.2 965 70 5 Image --
2000 4 19 10 -15.0 95.0 975 60 4 Image --
2000 4 19 16 -14.9 95.0 985 49 4 Image --
2000 4 19 22 -14.9 94.7 985 49 4 Image --
2000 4 20 04 -14.7 94.5 990 41 3 Image --
2000 4 20 08 -14.9 94.3 995 35 3 Image --
< Cyclone 200010 2000 Season Cyclone 200012 >

Help